Time;durP1;ratioP1;P1;durP2;ratioP2;P2;SDS_P1;SDS_P2;PMS_P1;PMS_P2;Temp;Humidity;BMP_temperature;BMP_pressure;BME280_temperature;BME280_humidity;BME280_pressure;Samples;Min_cycle;Max_cycle;Signal;HPM_P1;HPM_P2
2023/01/10 00:01:55;;;;;;;9.38;2.90;;;5.50;99.90;;;;;;5054170;28;20013;-81
2023/01/10 00:04:21;;;;;;;7.50;2.45;;;5.50;99.90;;;;;;5035708;28;20116;-80
2023/01/10 00:06:46;;;;;;;7.15;2.13;;;5.50;99.90;;;;;;5054238;28;20052;-79
2023/01/10 00:09:12;;;;;;;11.63;2.90;;;5.50;99.90;;;;;;5053953;28;20525;-79
2023/01/10 00:14:22;;;;;;;11.80;3.67;;;5.60;99.90;;;;;;5050825;28;20170;-79
2023/01/10 00:16:47;;;;;;;9.18;2.65;;;5.60;99.90;;;;;;5043059;28;20100;-80
2023/01/10 00:19:13;;;;;;;12.52;2.63;;;5.60;99.90;;;;;;5052712;28;20067;-81
2023/01/10 00:21:38;;;;;;;9.32;2.95;;;5.60;99.90;;;;;;5042862;28;20028;-81
2023/01/10 00:24:21;;;;;;;8.07;2.67;;;5.60;99.90;;;;;;5052247;28;20057;-79
2023/01/10 00:26:52;;;;;;;9.50;2.38;;;5.70;99.90;;;;;;5041334;28;20150;-81
2023/01/10 00:29:26;;;;;;;9.65;2.35;;;5.70;99.90;;;;;;5040558;28;20078;-81
2023/01/10 00:31:52;;;;;;;13.70;3.10;;;5.60;99.90;;;;;;5052389;28;20017;-81
2023/01/10 00:34:18;;;;;;;9.73;2.92;;;5.60;99.90;;;;;;5049499;28;20138;-81
2023/01/10 00:36:46;;;;;;;8.85;2.50;;;5.60;99.90;;;;;;5037139;28;20041;-80
2023/01/10 00:39:11;;;;;;;7.25;2.38;;;5.50;99.90;;;;;;5035489;28;20025;-79
2023/01/10 00:44:22;;;;;;;4.78;2.38;;;5.30;99.90;;;;;;5038407;28;20075;-79
2023/01/10 00:46:48;;;;;;;11.23;3.38;;;5.30;99.90;;;;;;5053076;28;20111;-79
2023/01/10 00:49:15;;;;;;;12.02;2.97;;;5.30;99.90;;;;;;5053660;28;20045;-80
2023/01/10 00:51:41;;;;;;;6.18;2.10;;;5.20;99.90;;;;;;5034973;28;20029;-80
2023/01/10 00:54:09;;;;;;;8.18;3.47;;;5.20;99.90;;;;;;5035101;28;20025;-80
2023/01/10 00:56:34;;;;;;;8.68;2.70;;;5.20;99.90;;;;;;5053100;28;20028;-80
2023/01/10 00:59:00;;;;;;;8.82;2.47;;;5.10;99.90;;;;;;5035251;28;20025;-81
2023/01/10 01:01:26;;;;;;;7.18;2.80;;;5.10;99.90;;;;;;5053354;28;20025;-80
2023/01/10 01:03:52;;;;;;;10.93;3.00;;;5.00;99.90;;;;;;5052823;28;20041;-80
2023/01/10 01:06:17;;;;;;;13.48;3.17;;;5.00;99.90;;;;;;5052455;28;20055;-79
2023/01/10 01:08:43;;;;;;;9.50;2.30;;;5.00;99.90;;;;;;5035040;28;20494;-80
2023/01/10 01:11:09;;;;;;;10.32;2.85;;;4.90;99.90;;;;;;5052850;28;20025;-80
2023/01/10 01:13:35;;;;;;;7.38;2.03;;;5.00;99.90;;;;;;5034930;28;20043;-80
2023/01/10 01:16:01;;;;;;;6.65;1.83;;;4.90;99.90;;;;;;5052758;28;20648;-80
2023/01/10 01:18:27;;;;;;;6.68;1.80;;;4.90;99.90;;;;;;5052601;28;20159;-81
2023/01/10 01:20:55;;;;;;;6.57;2.08;;;4.90;99.90;;;;;;5034835;28;20527;-81
2023/01/10 01:23:21;;;;;;;6.45;2.67;;;4.90;99.90;;;;;;5034747;28;20025;-80
2023/01/10 01:25:53;;;;;;;6.80;1.40;;;4.90;99.90;;;;;;5034577;28;20113;-80
2023/01/10 01:28:20;;;;;;;9.70;2.05;;;4.90;99.90;;;;;;5052297;28;20082;-80
2023/01/10 01:30:46;;;;;;;8.77;2.17;;;4.90;99.90;;;;;;5052657;28;20025;-80
2023/01/10 01:33:12;;;;;;;10.25;2.22;;;5.00;99.90;;;;;;5052488;28;20055;-80
2023/01/10 01:35:45;;;;;;;10.63;1.92;;;5.10;99.90;;;;;;5034378;28;20033;-80
2023/01/10 01:38:11;;;;;;;10.80;2.72;;;5.20;99.90;;;;;;5052521;28;20032;-80
2023/01/10 01:40:38;;;;;;;12.07;2.28;;;5.20;99.90;;;;;;5017578;28;20151;-80
2023/01/10 01:43:04;;;;;;;9.85;2.22;;;5.30;99.90;;;;;;5034426;28;20407;-80
2023/01/10 01:45:33;;;;;;;8.43;1.92;;;5.30;99.90;;;;;;5052308;28;20025;-79
2023/01/10 01:48:02;;;;;;;10.10;2.00;;;5.30;99.90;;;;;;5034167;28;20082;-80
2023/01/10 01:50:54;;;;;;;10.10;2.40;;;5.30;99.90;;;;;;5034297;28;20029;-80
2023/01/10 01:53:48;;;;;;;10.50;2.00;;;5.20;99.90;;;;;;5030597;28;20033;-80
2023/01/10 01:56:24;;;;;;;9.90;2.28;;;5.20;99.90;;;;;;5031926;28;20033;-80
2023/01/10 01:58:52;;;;;;;14.75;3.35;;;5.20;99.90;;;;;;5051867;28;20033;-79
2023/01/10 02:01:19;;;;;;;18.25;2.60;;;5.20;99.90;;;;;;5051971;28;20013;-80
2023/01/10 02:03:50;;;;;;;11.13;2.15;;;5.20;99.90;;;;;;5033155;28;20037;-80
2023/01/10 02:06:18;;;;;;;10.95;2.03;;;5.20;99.90;;;;;;5034278;28;20551;-81
2023/01/10 02:08:49;;;;;;;10.10;2.03;;;5.30;99.90;;;;;;5052232;28;20017;-80
2023/01/10 02:11:15;;;;;;;11.50;2.60;;;5.30;99.90;;;;;;5032929;28;20087;-80
2023/01/10 02:13:43;;;;;;;8.38;2.10;;;5.30;99.90;;;;;;5034079;28;20028;-80
2023/01/10 02:16:09;;;;;;;9.93;2.45;;;5.30;99.90;;;;;;5033125;28;20036;-80
2023/01/10 02:18:38;;;;;;;8.82;1.90;;;5.20;99.90;;;;;;5034210;28;20072;-81
2023/01/10 02:21:15;;;;;;;10.18;2.28;;;5.20;99.90;;;;;;5034041;28;20083;-79
2023/01/10 02:24:09;;;;;;;10.27;2.75;;;5.20;99.90;;;;;;5034004;28;20033;-79
2023/01/10 02:26:38;;;;;;;9.98;2.70;;;5.20;99.90;;;;;;5033870;28;20021;-80
2023/01/10 02:29:39;;;;;;;10.65;2.20;;;5.20;99.90;;;;;;5033949;28;20029;-80
2023/01/10 02:32:27;;;;;;;9.30;2.00;;;5.20;99.90;;;;;;4997217;28;20033;-80
2023/01/10 02:35:22;;;;;;;12.50;2.75;;;5.30;99.90;;;;;;5033951;28;20021;-81
2023/01/10 02:38:21;;;;;;;7.55;1.85;;;5.40;99.90;;;;;;5033795;28;20096;-80
2023/01/10 02:41:05;;;;;;;6.93;1.65;;;5.40;99.90;;;;;;5033501;28;20382;-80
2023/01/10 02:43:44;;;;;;;7.57;1.45;;;5.50;99.90;;;;;;5033773;28;20494;-81
2023/01/10 02:46:16;;;;;;;8.65;2.00;;;5.50;99.90;;;;;;5033765;28;20482;-80
2023/01/10 02:48:42;;;;;;;6.82;2.00;;;5.50;99.90;;;;;;5033578;28;20371;-81
2023/01/10 02:51:18;;;;;;;9.35;2.53;;;5.50;99.90;;;;;;5033577;28;20032;-80
2023/01/10 02:53:49;;;;;;;13.40;1.80;;;5.50;99.90;;;;;;5033569;28;20029;-80
2023/01/10 02:56:53;;;;;;;7.78;1.48;;;5.50;99.90;;;;;;5033758;28;20021;-80
2023/01/10 02:59:19;;;;;;;13.55;2.08;;;5.50;99.90;;;;;;5029039;28;20033;-80
2023/01/10 03:02:03;;;;;;;9.63;1.73;;;5.50;99.90;;;;;;5033712;28;20055;-80
2023/01/10 03:04:52;;;;;;;11.73;1.80;;;5.50;99.90;;;;;;5051121;28;20040;-80
2023/01/10 03:07:43;;;;;;;6.70;1.45;;;5.60;99.90;;;;;;5033348;28;20033;-79
2023/01/10 03:10:18;;;;;;;9.15;1.85;;;5.50;99.90;;;;;;5033443;28;20025;-80
2023/01/10 03:12:57;;;;;;;9.75;1.83;;;5.50;99.90;;;;;;5051562;28;20541;-81
2023/01/10 03:15:26;;;;;;;8.18;2.08;;;5.60;99.90;;;;;;5052910;28;20437;-81
2023/01/10 03:17:55;;;;;;;14.70;2.05;;;5.50;99.90;;;;;;5055252;28;20036;-81
2023/01/10 03:20:22;;;;;;;11.68;2.15;;;5.50;99.90;;;;;;5055136;28;20070;-80
2023/01/10 03:22:50;;;;;;;11.68;2.53;;;5.40;99.90;;;;;;5037092;28;20132;-80
2023/01/10 03:25:19;;;;;;;8.13;1.75;;;5.40;99.90;;;;;;5037055;28;20445;-80
2023/01/10 03:28:01;;;;;;;10.48;2.30;;;5.40;99.90;;;;;;5055036;28;20090;-79
2023/01/10 03:30:34;;;;;;;9.07;2.00;;;5.40;99.90;;;;;;5054919;28;20060;-80
2023/01/10 03:33:02;;;;;;;10.18;2.15;;;5.40;99.90;;;;;;5037125;28;20033;-80
2023/01/10 03:35:50;;;;;;;11.88;3.50;;;5.40;99.90;;;;;;5036837;28;20025;-81
2023/01/10 03:38:31;;;;;;;10.57;2.63;;;5.40;99.90;;;;;;5036882;28;20037;-80
2023/01/10 03:41:10;;;;;;;10.73;2.17;;;5.40;99.90;;;;;;5036436;28;20013;-79
2023/01/10 03:46:38;;;;;;;14.73;2.20;;;5.50;99.90;;;;;;5054993;28;20075;-80
2023/01/10 03:49:05;;;;;;;9.82;2.20;;;5.40;99.90;;;;;;5036885;28;20032;-80
2023/01/10 03:51:31;;;;;;;12.40;2.38;;;5.50;99.90;;;;;;5054484;28;20037;-80
2023/01/10 03:54:01;;;;;;;15.02;3.03;;;5.60;99.90;;;;;;5036411;28;20402;-81
2023/01/10 03:56:27;;;;;;;8.85;2.38;;;5.50;99.90;;;;;;5054449;28;20029;-80
2023/01/10 03:58:52;;;;;;;10.43;2.95;;;5.60;99.90;;;;;;5054320;28;20039;-81
2023/01/10 04:01:18;;;;;;;15.25;3.47;;;5.60;99.90;;;;;;5036523;28;20031;-81
2023/01/10 04:03:44;;;;;;;15.43;3.78;;;5.70;99.90;;;;;;5036255;28;20434;-81
2023/01/10 04:06:09;;;;;;;12.75;3.20;;;5.70;99.90;;;;;;5036370;28;20059;-80
2023/01/10 04:08:35;;;;;;;11.63;3.22;;;5.70;99.90;;;;;;5053895;28;20029;-81
2023/01/10 04:11:00;;;;;;;18.45;4.03;;;5.80;99.90;;;;;;5036272;28;20013;-80
2023/01/10 04:13:26;;;;;;;17.88;4.88;;;5.80;99.90;;;;;;5036412;28;20032;-80
2023/01/10 04:15:52;;;;;;;15.52;4.75;;;5.80;99.90;;;;;;5035915;28;20493;-81
2023/01/10 04:18:18;;;;;;;16.42;4.20;;;5.70;99.90;;;;;;5036173;28;20467;-81
2023/01/10 04:20:43;;;;;;;18.38;4.75;;;5.70;99.90;;;;;;5053902;28;20126;-80
2023/01/10 04:23:09;;;;;;;14.27;3.70;;;5.60;99.90;;;;;;5035985;28;20029;-80
2023/01/10 04:25:35;;;;;;;20.30;6.45;;;5.60;99.90;;;;;;5053624;28;20027;-80
2023/01/10 04:28:00;;;;;;;20.92;6.25;;;5.50;99.90;;;;;;5052979;28;20033;-80
2023/01/10 04:30:26;;;;;;;13.75;5.07;;;5.50;99.90;;;;;;5019501;28;20025;-81
2023/01/10 04:32:52;;;;;;;17.90;5.18;;;5.50;99.90;;;;;;5035918;28;20068;-80
2023/01/10 04:35:18;;;;;;;25.17;5.95;;;5.40;99.90;;;;;;5053990;28;20013;-80
2023/01/10 04:37:44;;;;;;;18.42;5.55;;;5.50;99.90;;;;;;5053465;28;20128;-80
2023/01/10 04:40:10;;;;;;;16.92;5.50;;;5.50;99.90;;;;;;5053386;28;20025;-80
2023/01/10 04:42:35;;;;;;;16.65;5.03;;;5.50;99.90;;;;;;5053504;28;20040;-80
2023/01/10 04:45:01;;;;;;;22.20;5.07;;;5.40;99.90;;;;;;5053355;28;20029;-79
2023/01/10 04:47:27;;;;;;;22.33;6.35;;;5.40;99.90;;;;;;5035170;28;20021;-80
2023/01/10 04:49:52;;;;;;;18.95;5.43;;;5.40;99.90;;;;;;5053896;28;20064;-80
2023/01/10 04:52:18;;;;;;;14.68;4.88;;;5.50;99.90;;;;;;5052956;28;20487;-80
2023/01/10 04:54:43;;;;;;;14.23;5.53;;;5.60;99.90;;;;;;5035031;28;20583;-80
2023/01/10 04:57:09;;;;;;;18.35;5.18;;;5.60;99.90;;;;;;5053262;28;20021;-80
2023/01/10 04:59:34;;;;;;;18.02;5.05;;;5.70;99.90;;;;;;5035639;28;20116;-80
2023/01/10 05:02:00;;;;;;;17.27;4.70;;;5.70;99.90;;;;;;5034165;28;20020;-81
2023/01/10 05:04:25;;;;;;;17.13;5.10;;;5.70;99.90;;;;;;5053157;28;20040;-80
2023/01/10 05:06:51;;;;;;;17.48;5.50;;;5.70;99.90;;;;;;5035099;28;20029;-81
2023/01/10 05:09:17;;;;;;;15.43;4.18;;;5.70;99.90;;;;;;5052872;28;20475;-80
2023/01/10 05:11:42;;;;;;;17.05;4.18;;;5.70;99.90;;;;;;5035032;28;20025;-79
2023/01/10 05:14:08;;;;;;;17.40;4.03;;;5.80;99.90;;;;;;5053005;28;20037;-80
2023/01/10 05:16:35;;;;;;;20.17;5.55;;;5.80;99.90;;;;;;5034835;28;20104;-79
2023/01/10 05:19:00;;;;;;;15.40;4.68;;;5.80;99.90;;;;;;5053087;28;20033;-80
2023/01/10 05:21:26;;;;;;;25.08;4.95;;;5.80;99.90;;;;;;5034813;28;20028;-81
2023/01/10 05:23:51;;;;;;;17.65;4.65;;;5.80;99.90;;;;;;5034709;28;20065;-80
2023/01/10 05:26:21;;;;;;;21.77;5.05;;;5.90;99.90;;;;;;5052490;28;20059;-80
2023/01/10 05:28:47;;;;;;;14.32;4.22;;;5.90;99.90;;;;;;5034702;28;20029;-80
2023/01/10 05:31:17;;;;;;;12.55;4.22;;;5.90;99.90;;;;;;5034765;28;20024;-80
2023/01/10 05:33:47;;;;;;;15.63;4.00;;;6.00;99.90;;;;;;5034686;28;20025;-79
2023/01/10 05:36:13;;;;;;;10.80;3.40;;;6.00;99.90;;;;;;5052266;28;20037;-80
2023/01/10 05:38:39;;;;;;;17.52;4.32;;;6.00;99.90;;;;;;5031192;28;20406;-80
2023/01/10 05:41:05;;;;;;;16.88;4.30;;;5.90;99.90;;;;;;5049565;28;20067;-81
2023/01/10 05:43:31;;;;;;;14.27;3.75;;;6.00;99.90;;;;;;5031669;28;20036;-81
2023/01/10 05:45:56;;;;;;;12.35;3.70;;;6.00;99.90;;;;;;5015196;28;20032;-80
2023/01/10 05:48:22;;;;;;;12.13;3.60;;;6.00;99.90;;;;;;5031438;28;20075;-81
2023/01/10 05:50:51;;;;;;;17.77;5.03;;;6.00;99.90;;;;;;5049632;28;20059;-81
2023/01/10 05:53:18;;;;;;;15.18;4.13;;;6.00;99.90;;;;;;5031315;28;20036;-80
2023/01/10 05:55:50;;;;;;;17.23;4.80;;;6.00;99.90;;;;;;5049173;28;20513;-79
2023/01/10 05:58:16;;;;;;;20.35;4.13;;;5.90;99.90;;;;;;5031935;28;20025;-79
2023/01/10 06:00:41;;;;;;;13.85;3.75;;;5.80;99.90;;;;;;5049553;28;20540;-80
2023/01/10 06:03:07;;;;;;;10.75;4.35;;;5.80;99.90;;;;;;5049564;28;20502;-81
2023/01/10 06:05:33;;;;;;;15.85;3.75;;;5.70;99.90;;;;;;5031476;28;20066;-80
2023/01/10 06:07:58;;;;;;;15.40;3.97;;;5.80;99.90;;;;;;5031369;28;20064;-80
2023/01/10 06:10:24;;;;;;;15.93;4.30;;;5.80;99.90;;;;;;5049477;28;20014;-81
2023/01/10 06:12:49;;;;;;;15.48;4.28;;;5.80;99.90;;;;;;5049263;28;20387;-81
2023/01/10 06:15:16;;;;;;;16.25;4.63;;;5.80;99.90;;;;;;5031945;28;20082;-81
2023/01/10 06:17:43;;;;;;;19.80;4.72;;;5.80;99.90;;;;;;5049219;28;20398;-81
2023/01/10 06:20:09;;;;;;;14.10;4.40;;;5.80;99.90;;;;;;5030918;28;20491;-81
2023/01/10 06:22:35;;;;;;;16.15;4.28;;;5.80;99.90;;;;;;5031536;28;20044;-80
2023/01/10 06:25:01;;;;;;;14.40;3.72;;;5.70;99.90;;;;;;5049264;28;20541;-80
2023/01/10 06:27:26;;;;;;;15.80;4.90;;;5.70;99.90;;;;;;5031062;28;20090;-81
2023/01/10 06:29:52;;;;;;;14.82;4.07;;;5.60;99.90;;;;;;5049954;28;20029;-81
2023/01/10 06:32:17;;;;;;;15.65;4.20;;;5.60;99.90;;;;;;5047746;28;20028;-80
2023/01/10 06:34:43;;;;;;;14.23;3.97;;;5.50;99.90;;;;;;5033439;28;20057;-80
2023/01/10 06:37:08;;;;;;;16.10;4.78;;;5.50;99.90;;;;;;5050713;28;20107;-80
2023/01/10 06:39:34;;;;;;;14.73;4.03;;;5.60;99.90;;;;;;5035015;28;20029;-80
2023/01/10 06:41:59;;;;;;;14.60;4.60;;;5.60;99.90;;;;;;5033502;28;20013;-81
2023/01/10 06:44:25;;;;;;;18.92;4.30;;;5.70;99.90;;;;;;5033702;28;20532;-80
2023/01/10 06:46:52;;;;;;;11.98;3.30;;;5.70;99.90;;;;;;5043815;28;20029;-81
2023/01/10 06:49:18;;;;;;;14.52;4.50;;;5.70;99.90;;;;;;5033378;28;20030;-80
2023/01/10 06:51:44;;;;;;;17.52;4.22;;;5.80;99.90;;;;;;5041341;28;20048;-80
2023/01/10 06:54:09;;;;;;;16.58;4.32;;;5.80;99.90;;;;;;5042875;28;20025;-80
2023/01/10 06:56:35;;;;;;;15.00;4.45;;;5.80;99.90;;;;;;5054614;28;20573;-80
2023/01/10 06:59:00;;;;;;;21.98;3.83;;;5.80;99.90;;;;;;5044431;28;20021;-79
2023/01/10 07:01:26;;;;;;;16.30;3.95;;;5.80;99.90;;;;;;5054340;28;20559;-80
2023/01/10 07:03:52;;;;;;;17.00;3.30;;;5.80;99.90;;;;;;5054149;28;20040;-80
2023/01/10 07:06:18;;;;;;;16.83;3.78;;;5.80;99.90;;;;;;5053915;28;20013;-80
2023/01/10 07:08:45;;;;;;;16.67;3.95;;;5.90;99.90;;;;;;5043536;28;20020;-81
2023/01/10 07:11:13;;;;;;;12.35;2.90;;;5.80;99.90;;;;;;5037633;28;20020;-80
2023/01/10 07:13:39;;;;;;;13.68;3.67;;;5.80;99.90;;;;;;5027152;28;20028;-80
2023/01/10 07:16:11;;;;;;;17.88;3.60;;;5.90;99.90;;;;;;5042687;28;20028;-80
2023/01/10 07:18:39;;;;;;;15.98;3.40;;;5.90;99.90;;;;;;5042691;28;20025;-81
2023/01/10 07:21:04;;;;;;;17.65;3.60;;;5.90;99.90;;;;;;5027608;28;20025;-79
2023/01/10 07:23:31;;;;;;;15.07;3.45;;;5.90;99.90;;;;;;5040255;28;20390;-80
2023/01/10 07:25:58;;;;;;;13.05;3.70;;;5.90;99.90;;;;;;5022142;28;20033;-80
2023/01/10 07:28:23;;;;;;;10.63;3.15;;;5.90;99.90;;;;;;5045886;28;20096;-80
2023/01/10 07:30:50;;;;;;;15.93;3.20;;;6.00;99.90;;;;;;5043240;28;20118;-81
2023/01/10 07:33:16;;;;;;;11.10;2.88;;;6.00;99.90;;;;;;5043499;28;20059;-81
2023/01/10 07:35:43;;;;;;;16.95;3.20;;;6.00;99.90;;;;;;5022911;28;20021;-81
2023/01/10 07:38:09;;;;;;;17.08;4.15;;;6.00;99.90;;;;;;5049922;28;20041;-81
2023/01/10 07:40:35;;;;;;;13.82;3.97;;;6.00;99.90;;;;;;5053965;28;20378;-80
2023/01/10 07:43:01;;;;;;;19.70;3.72;;;6.00;99.90;;;;;;5040315;28;20096;-81
2023/01/10 07:45:28;;;;;;;18.30;2.97;;;5.90;99.90;;;;;;5043230;28;20021;-81
2023/01/10 07:47:59;;;;;;;18.42;3.72;;;5.90;99.90;;;;;;5052093;28;20021;-81
2023/01/10 07:50:26;;;;;;;18.75;3.67;;;5.90;99.90;;;;;;5037928;28;20529;-80
2023/01/10 07:52:51;;;;;;;28.30;4.07;;;5.90;99.90;;;;;;5053563;28;20032;-80
2023/01/10 07:55:17;;;;;;;17.85;4.30;;;5.90;99.90;;;;;;5043036;28;20025;-81
2023/01/10 07:57:43;;;;;;;23.58;4.70;;;5.90;99.90;;;;;;5041192;28;20040;-80
2023/01/10 08:00:09;;;;;;;25.23;5.28;;;5.90;99.90;;;;;;5042040;28;20029;-80
2023/01/10 08:02:35;;;;;;;18.83;4.38;;;5.90;99.90;;;;;;5040342;28;20410;-81
2023/01/10 08:05:01;;;;;;;20.63;4.28;;;5.90;99.90;;;;;;5040545;28;20078;-80
2023/01/10 08:07:30;;;;;;;18.55;3.70;;;6.00;99.90;;;;;;5042317;28;20033;-80
2023/01/10 08:09:56;;;;;;;15.65;3.30;;;6.00;99.90;;;;;;5035277;28;20017;-80
2023/01/10 08:12:25;;;;;;;19.20;3.92;;;6.00;99.90;;;;;;5015651;28;20052;-81
2023/01/10 08:14:51;;;;;;;20.95;3.80;;;6.00;99.90;;;;;;5035594;28;20025;-82
2023/01/10 08:17:17;;;;;;;16.90;3.58;;;6.00;99.90;;;;;;5035396;28;20545;-82
2023/01/10 08:19:43;;;;;;;17.05;3.33;;;6.00;99.90;;;;;;5049870;28;20028;-80
2023/01/10 08:22:09;;;;;;;18.67;3.78;;;6.00;99.90;;;;;;5035309;28;20356;-83
2023/01/10 08:24:34;;;;;;;20.45;4.15;;;6.00;99.90;;;;;;5035186;28;20368;-81
2023/01/10 08:27:00;;;;;;;19.38;3.47;;;6.00;99.90;;;;;;5053159;28;20096;-83
2023/01/10 08:29:26;;;;;;;19.83;3.83;;;6.00;99.90;;;;;;5053295;28;20102;-82
2023/01/10 08:31:52;;;;;;;17.65;3.38;;;6.00;99.90;;;;;;5034997;28;20555;-82
2023/01/10 08:34:18;;;;;;;16.60;2.88;;;6.00;99.90;;;;;;5053084;28;20104;-84
2023/01/10 08:36:43;;;;;;;16.83;3.35;;;6.00;99.90;;;;;;5039224;28;20033;-83
2023/01/10 08:39:09;;;;;;;18.80;2.90;;;6.00;99.90;;;;;;5052687;28;20151;-81
2023/01/10 08:41:35;;;;;;;17.92;3.08;;;6.00;99.90;;;;;;5034907;28;20109;-82
2023/01/10 08:44:00;;;;;;;15.60;2.75;;;6.10;99.90;;;;;;5034894;28;20406;-83
2023/01/10 08:46:26;;;;;;;9.90;2.75;;;6.20;99.90;;;;;;5034864;28;20028;-83
2023/01/10 08:48:52;;;;;;;22.50;3.00;;;6.20;99.90;;;;;;5052935;28;20103;-82
2023/01/10 08:51:17;;;;;;;18.48;3.90;;;6.20;99.90;;;;;;5040331;28;20029;-81
2023/01/10 08:53:43;;;;;;;16.77;3.92;;;6.20;99.90;;;;;;5041736;28;20025;-82
2023/01/10 08:56:09;;;;;;;14.80;2.67;;;6.30;99.90;;;;;;5052423;28;20382;-83
2023/01/10 08:58:38;;;;;;;10.80;2.28;;;6.40;99.90;;;;;;5040696;28;20021;-83
2023/01/10 09:01:10;;;;;;;13.20;3.75;;;6.50;99.90;;;;;;5012281;28;20068;-83
2023/01/10 09:03:40;;;;;;;16.73;2.55;;;6.50;99.90;;;;;;5018603;28;20048;-80
2023/01/10 09:06:13;;;;;;;20.20;4.22;;;6.50;99.90;;;;;;5034696;28;20493;-82
2023/01/10 09:08:39;;;;;;;13.55;2.38;;;6.50;99.90;;;;;;5014326;28;20068;-81
2023/01/10 09:11:05;;;;;;;16.17;2.67;;;6.50;99.90;;;;;;5013405;28;20057;-82
2023/01/10 09:13:32;;;;;;;14.13;2.75;;;6.40;99.90;;;;;;5048525;28;20506;-80
2023/01/10 09:15:58;;;;;;;16.95;3.38;;;6.50;99.90;;;;;;5036023;28;20017;-80
2023/01/10 09:18:24;;;;;;;16.77;3.45;;;6.50;99.90;;;;;;5034412;28;20072;-80
2023/01/10 09:20:51;;;;;;;17.95;3.28;;;6.40;99.90;;;;;;5034419;28;20374;-82
2023/01/10 09:23:19;;;;;;;15.18;3.75;;;6.40;99.90;;;;;;5034269;28;20071;-80
2023/01/10 09:25:46;;;;;;;21.48;3.28;;;6.40;99.90;;;;;;5034070;28;20013;-81
2023/01/10 09:28:12;;;;;;;21.75;4.10;;;6.40;99.90;;;;;;5052131;28;20081;-80
2023/01/10 09:30:38;;;;;;;23.63;5.07;;;6.40;99.90;;;;;;5052143;28;20475;-81
2023/01/10 09:33:05;;;;;;;20.05;3.78;;;6.40;99.90;;;;;;5033798;28;20032;-82
2023/01/10 09:35:33;;;;;;;28.20;5.60;;;6.40;99.90;;;;;;5051903;28;20025;-80
2023/01/10 09:38:00;;;;;;;20.45;4.65;;;6.40;99.90;;;;;;5035437;28;20132;-81
2023/01/10 09:40:28;;;;;;;19.92;3.75;;;6.40;99.90;;;;;;5033432;28;20544;-81
2023/01/10 09:43:04;;;;;;;16.95;3.15;;;6.50;99.90;;;;;;5033984;28;20035;-83
2023/01/10 09:45:48;;;;;;;17.92;2.92;;;6.50;99.90;;;;;;5051787;28;20025;-83
2023/01/10 09:49:05;;;;;;;22.85;3.35;;;6.50;99.90;;;;;;5019799;28;20029;-82
2023/01/10 09:51:36;;;;;;;17.35;3.28;;;6.50;99.90;;;;;;4997663;28;20124;-82
2023/01/10 09:54:05;;;;;;;19.67;3.53;;;6.40;99.90;;;;;;5018374;28;20045;-82
2023/01/10 09:56:33;;;;;;;19.63;3.33;;;6.40;99.90;;;;;;5051606;28;20071;-82
2023/01/10 09:59:01;;;;;;;15.20;3.05;;;6.40;99.90;;;;;;5051717;28;20021;-81
2023/01/10 10:01:35;;;;;;;19.67;3.72;;;6.40;99.90;;;;;;5051546;28;20112;-81
2023/01/10 10:04:28;;;;;;;17.63;4.25;;;6.40;99.90;;;;;;5037941;28;20415;-82
2023/01/10 10:06:54;;;;;;;16.15;3.22;;;6.40;99.90;;;;;;5051522;28;20056;-82
2023/01/10 10:09:25;;;;;;;20.05;3.97;;;6.40;99.90;;;;;;5033396;28;20051;-81
2023/01/10 10:12:26;;;;;;;13.27;3.58;;;6.40;99.90;;;;;;5033526;28;20040;-81
2023/01/10 10:14:59;;;;;;;19.73;3.80;;;6.50;99.90;;;;;;5040326;28;20112;-82
2023/01/10 10:17:51;;;;;;;15.33;3.13;;;6.40;99.90;;;;;;5033554;28;20068;-83
2023/01/10 10:20:38;;;;;;;18.23;3.38;;;6.50;99.90;;;;;;5019890;28;20271;-83
2023/01/10 10:23:29;;;;;;;17.50;3.75;;;6.50;99.90;;;;;;5033183;28;20068;-82
2023/01/10 10:26:03;;;;;;;18.60;3.15;;;6.40;99.90;;;;;;5035766;28;20144;-82
2023/01/10 10:28:41;;;;;;;18.85;4.00;;;6.50;99.90;;;;;;5037080;28;20433;-83
2023/01/10 10:31:23;;;;;;;16.48;3.30;;;6.50;99.90;;;;;;5048540;28;20114;-84
2023/01/10 10:34:25;;;;;;;16.65;4.78;;;6.60;99.90;;;;;;5054070;28;20033;-84
2023/01/10 10:37:08;;;;;;;16.00;4.00;;;6.60;99.90;;;;;;5037214;28;20048;-84
2023/01/10 10:39:44;;;;;;;16.17;3.25;;;6.60;99.90;;;;;;5037124;28;20021;-83
2023/01/10 10:42:16;;;;;;;17.25;3.70;;;6.60;99.90;;;;;;5055222;28;20032;-85
2023/01/10 10:44:57;;;;;;;16.85;3.33;;;6.60;99.90;;;;;;5037058;28;20486;-84
2023/01/10 10:47:29;;;;;;;19.33;4.13;;;6.60;99.90;;;;;;5037123;28;20055;-84
2023/01/10 10:49:55;;;;;;;17.55;4.25;;;6.70;99.90;;;;;;5037167;28;20017;-84
2023/01/10 10:52:30;;;;;;;18.02;3.53;;;6.70;99.90;;;;;;5039603;28;20461;-83
2023/01/10 10:54:57;;;;;;;13.75;3.53;;;6.70;99.90;;;;;;5044198;28;20035;-82
2023/01/10 10:57:27;;;;;;;15.63;2.92;;;6.80;99.90;;;;;;5051898;28;20021;-82
2023/01/10 10:59:53;;;;;;;11.80;3.03;;;6.80;99.90;;;;;;5044610;28;20047;-83
2023/01/10 11:02:25;;;;;;;12.57;2.53;;;6.90;99.90;;;;;;5052672;28;20025;-82
2023/01/10 11:04:54;;;;;;;16.67;3.83;;;6.90;99.90;;;;;;5051857;28;20080;-82
2023/01/10 11:07:21;;;;;;;14.05;3.05;;;6.80;99.90;;;;;;5034235;28;20540;-84
2023/01/10 11:10:13;;;;;;;19.20;3.80;;;6.80;99.90;;;;;;5033664;28;20033;-83
2023/01/10 11:12:43;;;;;;;19.38;4.05;;;6.80;99.90;;;;;;5051941;28;20140;-84
2023/01/10 11:15:10;;;;;;;12.88;3.25;;;6.70;99.90;;;;;;5051704;28;20021;-86
2023/01/10 11:17:39;;;;;;;15.93;3.63;;;6.60;99.90;;;;;;5032651;28;20021;-85
2023/01/10 11:20:16;;;;;;;16.10;2.95;;;6.60;99.90;;;;;;5031876;28;20021;-82
2023/01/10 11:22:50;;;;;;;16.52;3.03;;;6.60;99.90;;;;;;5034582;28;20082;-86
2023/01/10 11:25:19;;;;;;;12.02;3.60;;;6.60;99.90;;;;;;5032860;28;20040;-84
2023/01/10 11:27:50;;;;;;;20.17;3.30;;;6.60;99.90;;;;;;5052222;28;20025;-84
2023/01/10 11:30:24;;;;;;;14.93;2.95;;;6.60;99.90;;;;;;5033548;28;20022;-85
2023/01/10 11:33:00;;;;;;;14.52;3.30;;;6.60;99.90;;;;;;5054317;28;20174;-86
2023/01/10 11:35:35;;;;;;;21.13;5.45;;;6.70;99.90;;;;;;5035571;28;20066;-85
2023/01/10 11:38:04;;;;;;;16.85;2.90;;;6.70;99.90;;;;;;5053264;28;20048;-85
2023/01/10 11:40:32;;;;;;;15.60;3.65;;;6.70;99.90;;;;;;5054199;28;20033;-86
2023/01/10 11:42:59;;;;;;;15.38;2.95;;;6.70;99.90;;;;;;5036431;28;20021;-86
2023/01/10 11:45:30;;;;;;;16.35;3.17;;;6.70;99.90;;;;;;5036608;28;20029;-85
2023/01/10 11:48:02;;;;;;;18.13;3.90;;;6.70;99.90;;;;;;5036624;28;20108;-86
2023/01/10 11:50:32;;;;;;;17.88;4.18;;;6.80;99.90;;;;;;5036591;28;20040;-84
2023/01/10 11:52:57;;;;;;;21.80;4.20;;;6.80;99.90;;;;;;5054466;28;20029;-84
2023/01/10 11:55:30;;;;;;;15.93;4.15;;;6.80;99.90;;;;;;5036340;28;20017;-83
2023/01/10 11:58:04;;;;;;;17.27;3.20;;;6.70;99.90;;;;;;5051098;28;20040;-82
2023/01/10 12:00:41;;;;;;;21.45;3.33;;;6.80;99.90;;;;;;5036002;28;20435;-85
2023/01/10 12:03:28;;;;;;;22.73;3.88;;;6.80;99.90;;;;;;5054075;28;20032;-84
2023/01/10 12:06:03;;;;;;;20.40;3.90;;;6.80;99.90;;;;;;5035767;28;20064;-83
2023/01/10 12:08:33;;;;;;;19.30;3.72;;;6.80;99.90;;;;;;5035807;28;20027;-83
2023/01/10 12:11:16;;;;;;;19.70;3.70;;;6.70;99.90;;;;;;5035749;28;20083;-83
2023/01/10 12:13:48;;;;;;;12.88;3.92;;;6.80;99.90;;;;;;5053347;28;20062;-83
2023/01/10 12:16:25;;;;;;;19.73;3.60;;;6.70;99.90;;;;;;5035851;28;20029;-84
2023/01/10 12:18:58;;;;;;;14.30;3.72;;;6.80;99.90;;;;;;5053686;28;20494;-83
2023/01/10 12:21:45;;;;;;;17.58;3.47;;;6.80;99.90;;;;;;5053240;28;20021;-83
2023/01/10 12:24:21;;;;;;;20.40;3.80;;;6.80;99.90;;;;;;5053281;28;20034;-84
2023/01/10 12:26:49;;;;;;;15.95;3.15;;;6.80;99.90;;;;;;5020212;28;20106;-83
2023/01/10 12:29:20;;;;;;;14.20;3.42;;;6.90;99.90;;;;;;5052925;28;20383;-84
2023/01/10 12:31:48;;;;;;;15.02;3.95;;;6.80;99.90;;;;;;5035197;28;20021;-82
2023/01/10 12:34:19;;;;;;;18.10;3.60;;;6.90;99.90;;;;;;5052745;28;20111;-84
2023/01/10 12:36:50;;;;;;;17.88;3.70;;;6.90;99.90;;;;;;5042361;28;20414;-81
2023/01/10 12:39:23;;;;;;;16.05;3.85;;;6.90;99.90;;;;;;5052797;28;20028;-82
2023/01/10 12:44:58;;;;;;;18.90;3.97;;;7.00;99.90;;;;;;5039603;28;20156;-85
2023/01/10 12:47:29;;;;;;;14.32;3.38;;;6.90;99.90;;;;;;5034304;28;20115;-82
2023/01/10 12:50:08;;;;;;;21.48;5.53;;;6.90;99.90;;;;;;5035403;28;20090;-83
2023/01/10 12:52:47;;;;;;;19.45;3.63;;;7.00;99.90;;;;;;5034019;28;20025;-84
2023/01/10 12:55:22;;;;;;;14.93;3.25;;;6.90;99.90;;;;;;5040442;28;20064;-83
2023/01/10 12:57:52;;;;;;;19.42;3.55;;;6.90;99.90;;;;;;5034640;28;20049;-81
2023/01/10 13:00:20;;;;;;;21.08;3.80;;;7.00;99.90;;;;;;5034860;28;20107;-83
2023/01/10 13:02:49;;;;;;;14.40;3.15;;;6.90;99.90;;;;;;5034849;28;20017;-83
2023/01/10 13:05:25;;;;;;;17.48;4.22;;;6.90;99.90;;;;;;5018027;28;20407;-82
2023/01/10 13:08:03;;;;;;;22.00;4.95;;;6.90;99.90;;;;;;5034409;28;20568;-82
2023/01/10 13:10:30;;;;;;;15.75;3.95;;;7.00;99.90;;;;;;5031740;28;20457;-82
2023/01/10 13:13:11;;;;;;;21.13;4.57;;;6.90;99.90;;;;;;5046894;28;20028;-83
2023/01/10 13:16:14;;;;;;;15.18;3.25;;;7.00;99.90;;;;;;5034221;28;20502;-83